sensor_id;sensor_type;location;lat;lon;timestamp;P1;durP1;ratioP1;P2;durP2;ratioP2
12165;SDS011;6146;48.128;11.476;2023-06-26T00:02:00;7.87;;;7.07;;
12165;SDS011;6146;48.128;11.476;2023-06-26T00:04:26;8.47;;;7.43;;
12165;SDS011;6146;48.128;11.476;2023-06-26T00:06:51;8.33;;;7.33;;
12165;SDS011;6146;48.128;11.476;2023-06-26T00:09:17;8.07;;;7.30;;
12165;SDS011;6146;48.128;11.476;2023-06-26T00:11:42;8.00;;;7.20;;
12165;SDS011;6146;48.128;11.476;2023-06-26T00:14:08;9.03;;;7.33;;
12165;SDS011;6146;48.128;11.476;2023-06-26T00:16:33;8.53;;;6.70;;
12165;SDS011;6146;48.128;11.476;2023-06-26T00:18:59;8.37;;;7.47;;
12165;SDS011;6146;48.128;11.476;2023-06-26T00:21:25;8.30;;;7.10;;
12165;SDS011;6146;48.128;11.476;2023-06-26T00:23:51;9.00;;;7.30;;
12165;SDS011;6146;48.128;11.476;2023-06-26T00:26:16;8.20;;;7.40;;
12165;SDS011;6146;48.128;11.476;2023-06-26T00:28:42;7.50;;;6.80;;
12165;SDS011;6146;48.128;11.476;2023-06-26T00:31:07;8.07;;;6.97;;
12165;SDS011;6146;48.128;11.476;2023-06-26T00:33:33;7.87;;;7.07;;
12165;SDS011;6146;48.128;11.476;2023-06-26T00:35:59;7.60;;;6.77;;
12165;SDS011;6146;48.128;11.476;2023-06-26T00:38:24;7.20;;;6.50;;
12165;SDS011;6146;48.128;11.476;2023-06-26T00:40:50;7.37;;;6.60;;
12165;SDS011;6146;48.128;11.476;2023-06-26T00:43:16;7.23;;;6.53;;
12165;SDS011;6146;48.128;11.476;2023-06-26T00:45:41;7.30;;;6.10;;
12165;SDS011;6146;48.128;11.476;2023-06-26T00:48:07;7.47;;;6.60;;
12165;SDS011;6146;48.128;11.476;2023-06-26T00:50:36;7.60;;;6.80;;
12165;SDS011;6146;48.128;11.476;2023-06-26T00:53:02;7.13;;;6.20;;
12165;SDS011;6146;48.128;11.476;2023-06-26T00:55:28;7.00;;;6.30;;
12165;SDS011;6146;48.128;11.476;2023-06-26T00:57:54;6.37;;;5.77;;
12165;SDS011;6146;48.128;11.476;2023-06-26T01:00:21;7.60;;;6.20;;
12165;SDS011;6146;48.128;11.476;2023-06-26T01:02:47;6.50;;;5.87;;
12165;SDS011;6146;48.128;11.476;2023-06-26T01:05:12;6.67;;;6.07;;
12165;SDS011;6146;48.128;11.476;2023-06-26T01:07:45;6.50;;;5.90;;
12165;SDS011;6146;48.128;11.476;2023-06-26T01:10:12;7.23;;;6.37;;
12165;SDS011;6146;48.128;11.476;2023-06-26T01:12:38;6.73;;;6.13;;
12165;SDS011;6146;48.128;11.476;2023-06-26T01:15:04;6.93;;;6.20;;
12165;SDS011;6146;48.128;11.476;2023-06-26T01:17:30;6.97;;;6.37;;
12165;SDS011;6146;48.128;11.476;2023-06-26T01:20:00;7.07;;;6.37;;
12165;SDS011;6146;48.128;11.476;2023-06-26T01:22:35;7.07;;;6.13;;
12165;SDS011;6146;48.128;11.476;2023-06-26T01:27:55;7.30;;;5.90;;
12165;SDS011;6146;48.128;11.476;2023-06-26T01:30:21;6.57;;;5.87;;
12165;SDS011;6146;48.128;11.476;2023-06-26T01:32:48;6.80;;;6.20;;
12165;SDS011;6146;48.128;11.476;2023-06-26T01:35:14;7.10;;;6.27;;
12165;SDS011;6146;48.128;11.476;2023-06-26T01:37:41;7.10;;;6.40;;
12165;SDS011;6146;48.128;11.476;2023-06-26T01:40:06;6.03;;;5.40;;
12165;SDS011;6146;48.128;11.476;2023-06-26T01:42:33;6.80;;;6.10;;
12165;SDS011;6146;48.128;11.476;2023-06-26T01:45:00;7.20;;;6.40;;
12165;SDS011;6146;48.128;11.476;2023-06-26T01:47:31;7.30;;;6.60;;
12165;SDS011;6146;48.128;11.476;2023-06-26T01:55:45;7.30;;;6.60;;
12165;SDS011;6146;48.128;11.476;2023-06-26T01:58:15;6.97;;;6.27;;
12165;SDS011;6146;48.128;11.476;2023-06-26T02:00:45;7.30;;;6.57;;
12165;SDS011;6146;48.128;11.476;2023-06-26T02:03:12;6.40;;;5.80;;
12165;SDS011;6146;48.128;11.476;2023-06-26T02:05:37;6.53;;;5.87;;
12165;SDS011;6146;48.128;11.476;2023-06-26T02:08:03;7.00;;;6.30;;
12165;SDS011;6146;48.128;11.476;2023-06-26T02:10:29;7.77;;;6.90;;
12165;SDS011;6146;48.128;11.476;2023-06-26T02:12:55;6.87;;;6.13;;
12165;SDS011;6146;48.128;11.476;2023-06-26T02:15:20;7.90;;;7.10;;
12165;SDS011;6146;48.128;11.476;2023-06-26T02:17:46;6.90;;;6.20;;
12165;SDS011;6146;48.128;11.476;2023-06-26T02:20:13;7.13;;;6.43;;
12165;SDS011;6146;48.128;11.476;2023-06-26T02:22:39;7.20;;;6.50;;
12165;SDS011;6146;48.128;11.476;2023-06-26T02:25:05;6.53;;;5.77;;
12165;SDS011;6146;48.128;11.476;2023-06-26T02:27:30;8.83;;;6.90;;
12165;SDS011;6146;48.128;11.476;2023-06-26T02:29:56;11.23;;;7.03;;
12165;SDS011;6146;48.128;11.476;2023-06-26T02:32:22;7.10;;;6.40;;
12165;SDS011;6146;48.128;11.476;2023-06-26T02:34:47;7.30;;;6.53;;
12165;SDS011;6146;48.128;11.476;2023-06-26T02:37:13;7.97;;;6.70;;
12165;SDS011;6146;48.128;11.476;2023-06-26T02:39:38;7.43;;;6.73;;
12165;SDS011;6146;48.128;11.476;2023-06-26T02:42:04;7.90;;;6.80;;
12165;SDS011;6146;48.128;11.476;2023-06-26T02:44:30;8.97;;;6.77;;
12165;SDS011;6146;48.128;11.476;2023-06-26T02:46:55;8.07;;;7.27;;
12165;SDS011;6146;48.128;11.476;2023-06-26T02:49:21;9.63;;;7.07;;
12165;SDS011;6146;48.128;11.476;2023-06-26T02:51:46;7.63;;;6.80;;
12165;SDS011;6146;48.128;11.476;2023-06-26T02:54:12;7.17;;;6.47;;
12165;SDS011;6146;48.128;11.476;2023-06-26T02:56:38;7.83;;;6.30;;
12165;SDS011;6146;48.128;11.476;2023-06-26T02:59:03;8.03;;;7.23;;
12165;SDS011;6146;48.128;11.476;2023-06-26T03:01:29;8.50;;;7.17;;
12165;SDS011;6146;48.128;11.476;2023-06-26T03:03:54;8.63;;;7.03;;
12165;SDS011;6146;48.128;11.476;2023-06-26T03:06:20;7.30;;;6.53;;
12165;SDS011;6146;48.128;11.476;2023-06-26T03:08:46;7.50;;;6.77;;
12165;SDS011;6146;48.128;11.476;2023-06-26T03:11:11;8.43;;;7.40;;
12165;SDS011;6146;48.128;11.476;2023-06-26T03:13:37;7.77;;;6.60;;
12165;SDS011;6146;48.128;11.476;2023-06-26T03:16:03;8.50;;;7.07;;
12165;SDS011;6146;48.128;11.476;2023-06-26T03:18:29;7.90;;;7.10;;
12165;SDS011;6146;48.128;11.476;2023-06-26T03:20:55;7.90;;;7.10;;
12165;SDS011;6146;48.128;11.476;2023-06-26T03:23:21;7.77;;;7.07;;
12165;SDS011;6146;48.128;11.476;2023-06-26T03:25:48;7.90;;;7.20;;
12165;SDS011;6146;48.128;11.476;2023-06-26T03:28:14;7.80;;;7.00;;
12165;SDS011;6146;48.128;11.476;2023-06-26T03:30:40;7.60;;;6.83;;
12165;SDS011;6146;48.128;11.476;2023-06-26T03:33:05;8.17;;;7.33;;
12165;SDS011;6146;48.128;11.476;2023-06-26T03:35:31;8.60;;;6.73;;
12165;SDS011;6146;48.128;11.476;2023-06-26T03:37:57;8.33;;;7.00;;
12165;SDS011;6146;48.128;11.476;2023-06-26T03:40:23;9.00;;;7.23;;
12165;SDS011;6146;48.128;11.476;2023-06-26T03:42:48;7.03;;;6.33;;
12165;SDS011;6146;48.128;11.476;2023-06-26T03:45:14;7.57;;;6.77;;
12165;SDS011;6146;48.128;11.476;2023-06-26T03:47:40;7.57;;;6.80;;
12165;SDS011;6146;48.128;11.476;2023-06-26T03:50:05;7.57;;;6.83;;
12165;SDS011;6146;48.128;11.476;2023-06-26T03:52:31;9.17;;;7.03;;
12165;SDS011;6146;48.128;11.476;2023-06-26T03:54:57;8.10;;;7.07;;
12165;SDS011;6146;48.128;11.476;2023-06-26T03:57:23;6.97;;;6.27;;
12165;SDS011;6146;48.128;11.476;2023-06-26T03:59:48;7.90;;;7.10;;
12165;SDS011;6146;48.128;11.476;2023-06-26T04:02:14;8.10;;;7.30;;
12165;SDS011;6146;48.128;11.476;2023-06-26T04:04:40;8.17;;;6.87;;
12165;SDS011;6146;48.128;11.476;2023-06-26T04:07:05;9.87;;;7.73;;
12165;SDS011;6146;48.128;11.476;2023-06-26T04:09:31;8.20;;;7.40;;
12165;SDS011;6146;48.128;11.476;2023-06-26T04:11:56;8.13;;;7.33;;
12165;SDS011;6146;48.128;11.476;2023-06-26T04:14:22;7.23;;;6.50;;
12165;SDS011;6146;48.128;11.476;2023-06-26T04:16:47;7.93;;;6.83;;
12165;SDS011;6146;48.128;11.476;2023-06-26T04:19:13;8.27;;;6.90;;
12165;SDS011;6146;48.128;11.476;2023-06-26T04:21:38;7.10;;;6.43;;
12165;SDS011;6146;48.128;11.476;2023-06-26T04:24:04;8.77;;;7.80;;
12165;SDS011;6146;48.128;11.476;2023-06-26T04:26:30;7.97;;;7.17;;
12165;SDS011;6146;48.128;11.476;2023-06-26T04:28:56;7.67;;;6.83;;
12165;SDS011;6146;48.128;11.476;2023-06-26T04:31:21;8.07;;;7.13;;
12165;SDS011;6146;48.128;11.476;2023-06-26T04:33:47;8.77;;;7.30;;
12165;SDS011;6146;48.128;11.476;2023-06-26T04:36:17;7.67;;;6.87;;
12165;SDS011;6146;48.128;11.476;2023-06-26T04:38:43;7.20;;;6.50;;
12165;SDS011;6146;48.128;11.476;2023-06-26T04:41:08;7.47;;;6.23;;
12165;SDS011;6146;48.128;11.476;2023-06-26T04:43:34;7.20;;;6.50;;
12165;SDS011;6146;48.128;11.476;2023-06-26T04:45:59;7.87;;;7.07;;
12165;SDS011;6146;48.128;11.476;2023-06-26T04:48:27;8.33;;;6.97;;
12165;SDS011;6146;48.128;11.476;2023-06-26T04:50:56;9.33;;;7.33;;
12165;SDS011;6146;48.128;11.476;2023-06-26T04:53:22;8.40;;;6.80;;
12165;SDS011;6146;48.128;11.476;2023-06-26T04:55:48;7.83;;;6.63;;
12165;SDS011;6146;48.128;11.476;2023-06-26T04:58:14;7.07;;;6.23;;
12165;SDS011;6146;48.128;11.476;2023-06-26T05:00:41;7.50;;;6.80;;
12165;SDS011;6146;48.128;11.476;2023-06-26T05:03:07;7.00;;;6.30;;
12165;SDS011;6146;48.128;11.476;2023-06-26T05:05:34;9.03;;;6.40;;
12165;SDS011;6146;48.128;11.476;2023-06-26T05:08:06;6.90;;;6.30;;
12165;SDS011;6146;48.128;11.476;2023-06-26T05:10:39;6.70;;;6.03;;
12165;SDS011;6146;48.128;11.476;2023-06-26T05:13:04;6.22;;;5.63;;
12165;SDS011;6146;48.128;11.476;2023-06-26T05:15:30;6.75;;;6.05;;
12165;SDS011;6146;48.128;11.476;2023-06-26T05:17:55;7.70;;;6.50;;
12165;SDS011;6146;48.128;11.476;2023-06-26T05:20:21;6.57;;;5.97;;
12165;SDS011;6146;48.128;11.476;2023-06-26T05:22:46;6.90;;;5.93;;
12165;SDS011;6146;48.128;11.476;2023-06-26T05:25:12;6.32;;;5.82;;
12165;SDS011;6146;48.128;11.476;2023-06-26T05:27:39;6.82;;;6.20;;
12165;SDS011;6146;48.128;11.476;2023-06-26T05:30:05;6.60;;;5.95;;
12165;SDS011;6146;48.128;11.476;2023-06-26T05:32:32;5.97;;;5.45;;
12165;SDS011;6146;48.128;11.476;2023-06-26T05:35:00;7.53;;;6.82;;
12165;SDS011;6146;48.128;11.476;2023-06-26T05:37:28;6.43;;;5.82;;
12165;SDS011;6146;48.128;11.476;2023-06-26T05:39:54;6.45;;;5.90;;
12165;SDS011;6146;48.128;11.476;2023-06-26T05:42:20;5.75;;;5.20;;
12165;SDS011;6146;48.128;11.476;2023-06-26T05:44:45;6.20;;;5.63;;
12165;SDS011;6146;48.128;11.476;2023-06-26T05:47:11;6.20;;;5.68;;
12165;SDS011;6146;48.128;11.476;2023-06-26T05:49:37;6.80;;;6.10;;
12165;SDS011;6146;48.128;11.476;2023-06-26T05:52:02;7.07;;;6.47;;
12165;SDS011;6146;48.128;11.476;2023-06-26T05:54:28;6.45;;;5.90;;
12165;SDS011;6146;48.128;11.476;2023-06-26T05:56:56;6.78;;;6.18;;
12165;SDS011;6146;48.128;11.476;2023-06-26T05:59:24;6.05;;;5.50;;
12165;SDS011;6146;48.128;11.476;2023-06-26T06:01:51;6.38;;;5.78;;
12165;SDS011;6146;48.128;11.476;2023-06-26T06:04:17;7.10;;;5.38;;
12165;SDS011;6146;48.128;11.476;2023-06-26T06:06:42;6.07;;;5.40;;
12165;SDS011;6146;48.128;11.476;2023-06-26T06:09:08;5.75;;;5.13;;
12165;SDS011;6146;48.128;11.476;2023-06-26T06:11:34;6.45;;;5.30;;
12165;SDS011;6146;48.128;11.476;2023-06-26T06:13:59;6.13;;;5.30;;
12165;SDS011;6146;48.128;11.476;2023-06-26T06:16:25;5.60;;;5.10;;
12165;SDS011;6146;48.128;11.476;2023-06-26T06:18:51;5.80;;;5.15;;
12165;SDS011;6146;48.128;11.476;2023-06-26T06:21:16;4.75;;;4.32;;
12165;SDS011;6146;48.128;11.476;2023-06-26T06:23:42;5.85;;;4.72;;
12165;SDS011;6146;48.128;11.476;2023-06-26T06:26:08;4.85;;;4.35;;
12165;SDS011;6146;48.128;11.476;2023-06-26T06:28:33;5.43;;;4.97;;
12165;SDS011;6146;48.128;11.476;2023-06-26T06:30:59;5.35;;;4.85;;
12165;SDS011;6146;48.128;11.476;2023-06-26T06:33:24;5.95;;;5.30;;
12165;SDS011;6146;48.128;11.476;2023-06-26T06:35:50;4.85;;;4.43;;
12165;SDS011;6146;48.128;11.476;2023-06-26T06:38:15;5.07;;;4.68;;
12165;SDS011;6146;48.128;11.476;2023-06-26T06:40:41;6.00;;;4.65;;
12165;SDS011;6146;48.128;11.476;2023-06-26T06:43:06;5.15;;;4.65;;
12165;SDS011;6146;48.128;11.476;2023-06-26T06:45:32;5.18;;;4.60;;
12165;SDS011;6146;48.128;11.476;2023-06-26T06:47:57;4.95;;;4.57;;
12165;SDS011;6146;48.128;11.476;2023-06-26T06:50:23;4.85;;;4.45;;
12165;SDS011;6146;48.128;11.476;2023-06-26T06:52:48;4.47;;;4.10;;
12165;SDS011;6146;48.128;11.476;2023-06-26T06:55:14;4.57;;;4.28;;
12165;SDS011;6146;48.128;11.476;2023-06-26T06:57:40;4.88;;;4.47;;
12165;SDS011;6146;48.128;11.476;2023-06-26T07:00:06;5.13;;;4.65;;
12165;SDS011;6146;48.128;11.476;2023-06-26T07:02:37;5.07;;;4.60;;
12165;SDS011;6146;48.128;11.476;2023-06-26T07:05:03;5.07;;;4.68;;
12165;SDS011;6146;48.128;11.476;2023-06-26T07:07:30;4.45;;;4.05;;
12165;SDS011;6146;48.128;11.476;2023-06-26T07:10:01;7.25;;;4.90;;
12165;SDS011;6146;48.128;11.476;2023-06-26T07:12:28;4.90;;;4.50;;
12165;SDS011;6146;48.128;11.476;2023-06-26T07:14:54;5.13;;;4.57;;
12165;SDS011;6146;48.128;11.476;2023-06-26T07:17:21;4.70;;;4.22;;
12165;SDS011;6146;48.128;11.476;2023-06-26T07:19:47;4.97;;;4.57;;
12165;SDS011;6146;48.128;11.476;2023-06-26T07:22:13;4.60;;;4.30;;
12165;SDS011;6146;48.128;11.476;2023-06-26T07:24:38;4.68;;;4.28;;
12165;SDS011;6146;48.128;11.476;2023-06-26T07:27:04;4.47;;;4.07;;
12165;SDS011;6146;48.128;11.476;2023-06-26T07:29:29;4.72;;;4.30;;
12165;SDS011;6146;48.128;11.476;2023-06-26T07:31:55;4.85;;;4.45;;
12165;SDS011;6146;48.128;11.476;2023-06-26T07:34:20;4.80;;;4.28;;
12165;SDS011;6146;48.128;11.476;2023-06-26T07:36:46;5.20;;;4.80;;
12165;SDS011;6146;48.128;11.476;2023-06-26T07:39:11;4.78;;;4.38;;
12165;SDS011;6146;48.128;11.476;2023-06-26T07:41:37;4.70;;;4.30;;
12165;SDS011;6146;48.128;11.476;2023-06-26T07:44:03;4.93;;;4.53;;
12165;SDS011;6146;48.128;11.476;2023-06-26T07:46:28;4.70;;;4.30;;
12165;SDS011;6146;48.128;11.476;2023-06-26T07:48:54;4.68;;;4.25;;
12165;SDS011;6146;48.128;11.476;2023-06-26T07:51:20;4.85;;;4.45;;
12165;SDS011;6146;48.128;11.476;2023-06-26T07:53:46;4.80;;;4.40;;
12165;SDS011;6146;48.128;11.476;2023-06-26T07:56:11;4.38;;;3.97;;
12165;SDS011;6146;48.128;11.476;2023-06-26T07:58:37;4.88;;;4.38;;
12165;SDS011;6146;48.128;11.476;2023-06-26T08:01:02;16.48;;;5.88;;
12165;SDS011;6146;48.128;11.476;2023-06-26T08:03:28;4.57;;;4.18;;
12165;SDS011;6146;48.128;11.476;2023-06-26T08:05:54;7.70;;;4.85;;
12165;SDS011;6146;48.128;11.476;2023-06-26T08:08:19;4.50;;;4.13;;
12165;SDS011;6146;48.128;11.476;2023-06-26T08:10:45;5.18;;;4.68;;
12165;SDS011;6146;48.128;11.476;2023-06-26T08:13:10;4.47;;;4.07;;
12165;SDS011;6146;48.128;11.476;2023-06-26T08:15:36;4.65;;;4.25;;
12165;SDS011;6146;48.128;11.476;2023-06-26T08:18:02;4.65;;;4.25;;
12165;SDS011;6146;48.128;11.476;2023-06-26T08:20:27;4.85;;;4.45;;
12165;SDS011;6146;48.128;11.476;2023-06-26T08:22:53;5.22;;;4.50;;
12165;SDS011;6146;48.128;11.476;2023-06-26T08:25:19;4.75;;;4.35;;
12165;SDS011;6146;48.128;11.476;2023-06-26T08:27:45;4.72;;;4.30;;
12165;SDS011;6146;48.128;11.476;2023-06-26T08:30:11;4.70;;;4.35;;
12165;SDS011;6146;48.128;11.476;2023-06-26T08:32:38;4.68;;;4.28;;
12165;SDS011;6146;48.128;11.476;2023-06-26T08:35:04;4.53;;;4.13;;
12165;SDS011;6146;48.128;11.476;2023-06-26T08:37:31;5.13;;;4.63;;
12165;SDS011;6146;48.128;11.476;2023-06-26T08:39:57;4.68;;;4.28;;
12165;SDS011;6146;48.128;11.476;2023-06-26T08:42:25;4.30;;;4.00;;
12165;SDS011;6146;48.128;11.476;2023-06-26T08:44:51;4.68;;;4.28;;
12165;SDS011;6146;48.128;11.476;2023-06-26T08:47:17;4.55;;;4.15;;
12165;SDS011;6146;48.128;11.476;2023-06-26T08:52:28;4.05;;;3.75;;
12165;SDS011;6146;48.128;11.476;2023-06-26T08:54:58;4.40;;;4.10;;
12165;SDS011;6146;48.128;11.476;2023-06-26T08:57:27;4.22;;;3.92;;
12165;SDS011;6146;48.128;11.476;2023-06-26T08:59:55;3.67;;;3.38;;
12165;SDS011;6146;48.128;11.476;2023-06-26T09:02:21;4.20;;;3.90;;
12165;SDS011;6146;48.128;11.476;2023-06-26T09:04:48;4.25;;;3.85;;
12165;SDS011;6146;48.128;11.476;2023-06-26T09:07:16;4.47;;;4.07;;
12165;SDS011;6146;48.128;11.476;2023-06-26T09:09:43;4.20;;;3.80;;
12165;SDS011;6146;48.128;11.476;2023-06-26T09:12:08;3.92;;;3.63;;
12165;SDS011;6146;48.128;11.476;2023-06-26T09:14:35;3.85;;;3.55;;
12165;SDS011;6146;48.128;11.476;2023-06-26T09:17:04;4.65;;;4.20;;
12165;SDS011;6146;48.128;11.476;2023-06-26T09:19:30;3.90;;;3.50;;
12165;SDS011;6146;48.128;11.476;2023-06-26T09:21:55;6.40;;;4.03;;
12165;SDS011;6146;48.128;11.476;2023-06-26T09:24:21;4.30;;;3.95;;
12165;SDS011;6146;48.128;11.476;2023-06-26T09:26:49;4.15;;;3.40;;
12165;SDS011;6146;48.128;11.476;2023-06-26T09:29:16;3.80;;;3.50;;
12165;SDS011;6146;48.128;11.476;2023-06-26T09:31:43;3.55;;;3.25;;
12165;SDS011;6146;48.128;11.476;2023-06-26T09:34:09;3.72;;;3.35;;
12165;SDS011;6146;48.128;11.476;2023-06-26T09:36:35;3.38;;;3.13;;
12165;SDS011;6146;48.128;11.476;2023-06-26T09:39:04;4.63;;;3.20;;
12165;SDS011;6146;48.128;11.476;2023-06-26T09:41:37;4.00;;;3.45;;
12165;SDS011;6146;48.128;11.476;2023-06-26T09:44:06;4.28;;;3.58;;
12165;SDS011;6146;48.128;11.476;2023-06-26T09:46:37;3.97;;;3.67;;
12165;SDS011;6146;48.128;11.476;2023-06-26T09:49:05;3.85;;;3.40;;
12165;SDS011;6146;48.128;11.476;2023-06-26T09:51:38;4.18;;;3.85;;
12165;SDS011;6146;48.128;11.476;2023-06-26T09:54:05;4.75;;;3.60;;
12165;SDS011;6146;48.128;11.476;2023-06-26T09:56:32;3.67;;;3.35;;
12165;SDS011;6146;48.128;11.476;2023-06-26T09:59:01;4.03;;;3.63;;
12165;SDS011;6146;48.128;11.476;2023-06-26T10:01:29;3.50;;;3.20;;
12165;SDS011;6146;48.128;11.476;2023-06-26T10:03:55;3.92;;;3.63;;
12165;SDS011;6146;48.128;11.476;2023-06-26T10:06:28;3.50;;;3.20;;
12165;SDS011;6146;48.128;11.476;2023-06-26T10:08:58;3.60;;;3.30;;
12165;SDS011;6146;48.128;11.476;2023-06-26T10:11:25;4.00;;;3.50;;
12165;SDS011;6146;48.128;11.476;2023-06-26T10:14:05;3.55;;;3.15;;
12165;SDS011;6146;48.128;11.476;2023-06-26T10:16:32;3.75;;;3.45;;
12165;SDS011;6146;48.128;11.476;2023-06-26T10:19:01;3.60;;;3.30;;
12165;SDS011;6146;48.128;11.476;2023-06-26T10:21:29;3.80;;;3.13;;
12165;SDS011;6146;48.128;11.476;2023-06-26T10:23:59;3.30;;;3.10;;
12165;SDS011;6146;48.128;11.476;2023-06-26T10:26:25;3.58;;;3.28;;
12165;SDS011;6146;48.128;11.476;2023-06-26T10:28:53;3.47;;;3.22;;
12165;SDS011;6146;48.128;11.476;2023-06-26T10:31:21;4.90;;;3.80;;
12165;SDS011;6146;48.128;11.476;2023-06-26T10:33:51;4.00;;;3.70;;
12165;SDS011;6146;48.128;11.476;2023-06-26T10:36:20;3.90;;;3.15;;
12165;SDS011;6146;48.128;11.476;2023-06-26T10:38:54;3.67;;;3.08;;
12165;SDS011;6146;48.128;11.476;2023-06-26T10:41:23;3.58;;;3.28;;
12165;SDS011;6146;48.128;11.476;2023-06-26T10:44:32;3.30;;;3.10;;
12165;SDS011;6146;48.128;11.476;2023-06-26T10:46:48;4.50;;;3.10;;
12165;SDS011;6146;48.128;11.476;2023-06-26T10:49:15;3.45;;;3.15;;
12165;SDS011;6146;48.128;11.476;2023-06-26T10:51:49;4.18;;;3.58;;
12165;SDS011;6146;48.128;11.476;2023-06-26T10:54:16;3.78;;;3.47;;
12165;SDS011;6146;48.128;11.476;2023-06-26T10:56:49;4.10;;;3.70;;
12165;SDS011;6146;48.128;11.476;2023-06-26T10:59:19;4.22;;;3.70;;
12165;SDS011;6146;48.128;11.476;2023-06-26T11:01:47;4.78;;;4.05;;
12165;SDS011;6146;48.128;11.476;2023-06-26T11:04:35;3.97;;;3.60;;
12165;SDS011;6146;48.128;11.476;2023-06-26T11:07:24;4.65;;;3.70;;
12165;SDS011;6146;48.128;11.476;2023-06-26T11:10:00;4.15;;;3.40;;
12165;SDS011;6146;48.128;11.476;2023-06-26T11:12:41;4.10;;;3.80;;
12165;SDS011;6146;48.128;11.476;2023-06-26T11:15:09;4.40;;;3.80;;
12165;SDS011;6146;48.128;11.476;2023-06-26T11:17:37;4.28;;;3.90;;
12165;SDS011;6146;48.128;11.476;2023-06-26T11:20:10;4.68;;;4.10;;
12165;SDS011;6146;48.128;11.476;2023-06-26T11:22:38;7.38;;;4.57;;
12165;SDS011;6146;48.128;11.476;2023-06-26T11:25:06;5.63;;;5.22;;
12165;SDS011;6146;48.128;11.476;2023-06-26T11:27:42;5.30;;;4.82;;
12165;SDS011;6146;48.128;11.476;2023-06-26T11:30:09;4.53;;;4.22;;
12165;SDS011;6146;48.128;11.476;2023-06-26T11:32:37;4.95;;;4.50;;
12165;SDS011;6146;48.128;11.476;2023-06-26T11:35:03;4.40;;;4.05;;
12165;SDS011;6146;48.128;11.476;2023-06-26T11:37:32;4.28;;;3.95;;
12165;SDS011;6146;48.128;11.476;2023-06-26T11:39:59;4.80;;;4.40;;
12165;SDS011;6146;48.128;11.476;2023-06-26T11:42:40;4.93;;;4.53;;
12165;SDS011;6146;48.128;11.476;2023-06-26T11:45:06;4.70;;;4.30;;
12165;SDS011;6146;48.128;11.476;2023-06-26T11:47:32;5.35;;;4.95;;
12165;SDS011;6146;48.128;11.476;2023-06-26T11:49:57;4.85;;;4.43;;
12165;SDS011;6146;48.128;11.476;2023-06-26T11:52:23;5.97;;;5.40;;
12165;SDS011;6146;48.128;11.476;2023-06-26T11:54:49;5.25;;;4.85;;
12165;SDS011;6146;48.128;11.476;2023-06-26T11:57:14;5.22;;;4.82;;
12165;SDS011;6146;48.128;11.476;2023-06-26T11:59:40;5.95;;;4.53;;
12165;SDS011;6146;48.128;11.476;2023-06-26T12:02:09;5.03;;;4.57;;
12165;SDS011;6146;48.128;11.476;2023-06-26T12:04:36;4.78;;;4.38;;
12165;SDS011;6146;48.128;11.476;2023-06-26T12:07:04;4.60;;;4.20;;
12165;SDS011;6146;48.128;11.476;2023-06-26T12:09:33;5.45;;;5.00;;
12165;SDS011;6146;48.128;11.476;2023-06-26T12:12:03;5.47;;;4.40;;
12165;SDS011;6146;48.128;11.476;2023-06-26T12:14:29;4.80;;;4.40;;
12165;SDS011;6146;48.128;11.476;2023-06-26T12:16:55;5.40;;;4.90;;
12165;SDS011;6146;48.128;11.476;2023-06-26T12:19:28;5.15;;;4.75;;
12165;SDS011;6146;48.128;11.476;2023-06-26T12:21:54;5.15;;;4.65;;
12165;SDS011;6146;48.128;11.476;2023-06-26T12:24:22;5.35;;;4.45;;
12165;SDS011;6146;48.128;11.476;2023-06-26T12:26:52;5.05;;;4.65;;
12165;SDS011;6146;48.128;11.476;2023-06-26T12:29:21;5.22;;;4.43;;
12165;SDS011;6146;48.128;11.476;2023-06-26T12:31:54;5.95;;;5.03;;
12165;SDS011;6146;48.128;11.476;2023-06-26T12:34:20;5.38;;;4.90;;
12165;SDS011;6146;48.128;11.476;2023-06-26T12:36:52;6.00;;;4.68;;
12165;SDS011;6146;48.128;11.476;2023-06-26T12:39:19;4.90;;;4.50;;
12165;SDS011;6146;48.128;11.476;2023-06-26T12:41:52;5.43;;;4.90;;
12165;SDS011;6146;48.128;11.476;2023-06-26T12:44:19;5.63;;;5.13;;
12165;SDS011;6146;48.128;11.476;2023-06-26T12:46:56;5.55;;;5.05;;
12165;SDS011;6146;48.128;11.476;2023-06-26T12:49:29;5.60;;;4.85;;
12165;SDS011;6146;48.128;11.476;2023-06-26T12:52:06;5.50;;;4.80;;
12165;SDS011;6146;48.128;11.476;2023-06-26T12:54:34;5.22;;;4.72;;
12165;SDS011;6146;48.128;11.476;2023-06-26T12:57:00;4.97;;;4.47;;
12165;SDS011;6146;48.128;11.476;2023-06-26T12:59:25;7.15;;;5.00;;
12165;SDS011;6146;48.128;11.476;2023-06-26T13:01:51;4.70;;;4.30;;
12165;SDS011;6146;48.128;11.476;2023-06-26T13:04:17;5.22;;;4.82;;
12165;SDS011;6146;48.128;11.476;2023-06-26T13:06:43;6.80;;;5.05;;
12165;SDS011;6146;48.128;11.476;2023-06-26T13:09:08;5.82;;;5.32;;
12165;SDS011;6146;48.128;11.476;2023-06-26T13:11:36;5.43;;;4.72;;
12165;SDS011;6146;48.128;11.476;2023-06-26T13:14:02;5.38;;;4.88;;
12165;SDS011;6146;48.128;11.476;2023-06-26T13:16:28;5.10;;;4.65;;
12165;SDS011;6146;48.128;11.476;2023-06-26T13:18:54;4.93;;;4.53;;
12165;SDS011;6146;48.128;11.476;2023-06-26T13:21:20;5.28;;;4.88;;
12165;SDS011;6146;48.128;11.476;2023-06-26T13:23:46;5.15;;;4.75;;
12165;SDS011;6146;48.128;11.476;2023-06-26T13:26:12;6.53;;;4.95;;
12165;SDS011;6146;48.128;11.476;2023-06-26T13:28:37;6.00;;;5.40;;
12165;SDS011;6146;48.128;11.476;2023-06-26T13:31:03;5.30;;;4.85;;
12165;SDS011;6146;48.128;11.476;2023-06-26T13:33:29;5.35;;;4.85;;
12165;SDS011;6146;48.128;11.476;2023-06-26T13:35:55;5.20;;;4.70;;
12165;SDS011;6146;48.128;11.476;2023-06-26T13:38:21;5.63;;;5.13;;
12165;SDS011;6146;48.128;11.476;2023-06-26T13:40:54;5.32;;;4.93;;
12165;SDS011;6146;48.128;11.476;2023-06-26T13:43:25;5.78;;;5.28;;
12165;SDS011;6146;48.128;11.476;2023-06-26T13:45:51;5.50;;;4.88;;
12165;SDS011;6146;48.128;11.476;2023-06-26T13:48:17;5.32;;;4.82;;
12165;SDS011;6146;48.128;11.476;2023-06-26T13:50:42;6.25;;;5.18;;
12165;SDS011;6146;48.128;11.476;2023-06-26T13:53:08;5.85;;;5.35;;
12165;SDS011;6146;48.128;11.476;2023-06-26T13:55:34;5.07;;;4.68;;
12165;SDS011;6146;48.128;11.476;2023-06-26T13:58:00;6.00;;;5.50;;
12165;SDS011;6146;48.128;11.476;2023-06-26T14:00:30;6.78;;;5.30;;
12165;SDS011;6146;48.128;11.476;2023-06-26T14:02:56;5.75;;;5.25;;
12165;SDS011;6146;48.128;11.476;2023-06-26T14:05:22;5.25;;;4.85;;
12165;SDS011;6146;48.128;11.476;2023-06-26T14:07:47;5.75;;;5.25;;
12165;SDS011;6146;48.128;11.476;2023-06-26T14:10:13;5.45;;;5.00;;
12165;SDS011;6146;48.128;11.476;2023-06-26T14:12:40;5.50;;;4.90;;
12165;SDS011;6146;48.128;11.476;2023-06-26T14:15:06;5.63;;;4.85;;
12165;SDS011;6146;48.128;11.476;2023-06-26T14:17:32;5.78;;;5.28;;
12165;SDS011;6146;48.128;11.476;2023-06-26T14:19:58;5.43;;;4.93;;
12165;SDS011;6146;48.128;11.476;2023-06-26T14:22:24;5.45;;;4.95;;
12165;SDS011;6146;48.128;11.476;2023-06-26T14:24:50;5.65;;;5.20;;
12165;SDS011;6146;48.128;11.476;2023-06-26T14:27:15;5.32;;;4.85;;
12165;SDS011;6146;48.128;11.476;2023-06-26T14:29:41;5.28;;;4.88;;
12165;SDS011;6146;48.128;11.476;2023-06-26T14:32:06;5.25;;;4.75;;
12165;SDS011;6146;48.128;11.476;2023-06-26T14:34:32;5.78;;;4.97;;
12165;SDS011;6146;48.128;11.476;2023-06-26T14:36:58;6.20;;;5.00;;
12165;SDS011;6146;48.128;11.476;2023-06-26T14:39:23;5.50;;;4.70;;
12165;SDS011;6146;48.128;11.476;2023-06-26T14:41:49;5.60;;;5.10;;
12165;SDS011;6146;48.128;11.476;2023-06-26T14:44:15;5.97;;;5.30;;
12165;SDS011;6146;48.128;11.476;2023-06-26T14:46:41;6.50;;;4.63;;
12165;SDS011;6146;48.128;11.476;2023-06-26T14:49:06;5.13;;;4.72;;
12165;SDS011;6146;48.128;11.476;2023-06-26T14:51:32;5.55;;;5.05;;
12165;SDS011;6146;48.128;11.476;2023-06-26T14:53:58;5.43;;;5.03;;
12165;SDS011;6146;48.128;11.476;2023-06-26T14:56:25;5.43;;;4.93;;
12165;SDS011;6146;48.128;11.476;2023-06-26T14:58:50;5.22;;;4.82;;